Time;durP1;ratioP1;P1;durP2;ratioP2;P2;SDS_P1;SDS_P2;PMS_P1;PMS_P2;Temp;Humidity;BMP_temperature;BMP_pressure;BME280_temperature;BME280_humidity;BME280_pressure;Samples;Min_cycle;Max_cycle;Signal;HPM_P1;HPM_P2
2022/10/01 00:00:14;;;;;;;4.70;2.53;;;14.50;99.90;;;;;;2095022;28;20025;-70
2022/10/01 00:01:17;;;;;;;3.33;2.42;;;14.50;99.90;;;;;;2094548;28;20108;-70
2022/10/01 00:02:17;;;;;;;4.00;2.50;;;14.50;99.90;;;;;;2093683;28;20625;-70
2022/10/01 00:03:19;;;;;;;3.60;2.60;;;14.60;99.90;;;;;;2093000;28;20024;-70
2022/10/01 00:04:20;;;;;;;2.88;2.20;;;14.50;99.90;;;;;;2094579;28;20056;-70
2022/10/01 00:05:21;;;;;;;2.85;2.60;;;14.60;99.90;;;;;;2095106;28;20037;-70
2022/10/01 00:06:23;;;;;;;3.72;2.42;;;14.50;99.90;;;;;;2095370;28;20032;-70
2022/10/01 00:07:24;;;;;;;2.72;2.45;;;14.60;99.90;;;;;;2094069;28;20111;-70
2022/10/01 00:08:26;;;;;;;4.63;2.80;;;14.60;99.90;;;;;;2094156;28;20028;-70
2022/10/01 00:09:26;;;;;;;3.70;2.67;;;14.60;99.90;;;;;;2094594;28;20052;-70
2022/10/01 00:10:29;;;;;;;4.78;2.72;;;14.60;99.90;;;;;;2094846;28;20112;-70
2022/10/01 00:11:29;;;;;;;3.05;2.72;;;14.60;99.90;;;;;;2092438;28;20477;-70
2022/10/01 00:12:30;;;;;;;4.78;2.75;;;14.60;99.90;;;;;;2094151;28;20391;-70
2022/10/01 00:13:31;;;;;;;3.22;2.63;;;14.60;99.90;;;;;;2097275;28;20024;-71
2022/10/01 00:14:31;;;;;;;3.13;2.75;;;14.60;99.90;;;;;;2095236;28;20036;-70
2022/10/01 00:15:32;;;;;;;5.22;2.75;;;14.60;99.90;;;;;;2093109;28;20037;-70
2022/10/01 00:16:33;;;;;;;3.70;3.00;;;14.60;99.90;;;;;;2093830;28;20141;-70
2022/10/01 00:17:37;;;;;;;4.85;2.97;;;14.60;99.90;;;;;;2093443;28;20395;-70
2022/10/01 00:18:39;;;;;;;4.22;3.08;;;14.60;99.90;;;;;;2094569;28;20833;-70
2022/10/01 00:19:40;;;;;;;3.78;2.97;;;14.60;99.90;;;;;;2094819;28;20523;-70
2022/10/01 00:20:42;;;;;;;3.22;2.85;;;14.60;99.90;;;;;;2094468;28;20415;-71
2022/10/01 00:21:42;;;;;;;3.97;2.53;;;14.50;99.90;;;;;;2094140;28;20843;-70
2022/10/01 00:22:43;;;;;;;4.00;2.58;;;14.60;99.90;;;;;;2095045;28;20017;-70
2022/10/01 00:23:45;;;;;;;3.00;2.70;;;14.60;99.90;;;;;;2092289;28;20078;-70
2022/10/01 00:24:46;;;;;;;3.47;2.88;;;14.60;99.90;;;;;;2093230;28;20483;-70
2022/10/01 00:25:49;;;;;;;4.75;3.10;;;14.60;99.90;;;;;;2092689;28;20586;-70
2022/10/01 00:26:49;;;;;;;5.13;3.25;;;14.60;99.90;;;;;;2094342;28;20032;-70
2022/10/01 00:27:50;;;;;;;3.30;3.00;;;14.60;99.90;;;;;;2094515;28;20023;-70
2022/10/01 00:28:56;;;;;;;3.63;2.80;;;14.50;99.90;;;;;;2094626;28;20047;-70
2022/10/01 00:29:57;;;;;;;5.18;3.10;;;14.60;99.90;;;;;;2096116;28;20020;-70
2022/10/01 00:30:58;;;;;;;6.55;3.20;;;14.50;99.90;;;;;;2092652;28;20064;-71
2022/10/01 00:31:58;;;;;;;5.22;3.10;;;14.50;99.90;;;;;;2094184;28;20107;-70
2022/10/01 00:32:59;;;;;;;3.40;3.00;;;14.50;99.90;;;;;;2094670;28;20114;-70
2022/10/01 00:34:04;;;;;;;3.15;2.80;;;14.50;99.90;;;;;;2094815;28;20029;-70
2022/10/01 00:35:08;;;;;;;4.68;3.28;;;14.50;99.90;;;;;;2095407;28;20067;-70
2022/10/01 00:36:10;;;;;;;4.47;3.17;;;14.50;99.90;;;;;;2094424;28;20016;-70
2022/10/01 00:37:11;;;;;;;4.57;3.05;;;14.50;99.90;;;;;;2093803;28;20116;-70
2022/10/01 00:38:14;;;;;;;3.40;3.10;;;14.50;99.90;;;;;;2093833;28;20901;-70
2022/10/01 00:39:14;;;;;;;3.53;3.22;;;14.50;99.90;;;;;;2092840;28;20791;-70
2022/10/01 00:40:15;;;;;;;5.10;2.95;;;14.50;99.90;;;;;;2096003;28;20403;-71
2022/10/01 00:41:17;;;;;;;4.75;2.97;;;14.50;99.90;;;;;;2092455;28;20032;-70
2022/10/01 00:42:24;;;;;;;5.63;3.22;;;14.50;99.90;;;;;;2093580;28;20021;-70
2022/10/01 00:43:30;;;;;;;5.75;2.88;;;14.60;99.90;;;;;;2093635;28;20025;-70
2022/10/01 00:44:36;;;;;;;3.40;3.10;;;14.60;99.90;;;;;;2094839;28;20044;-71
2022/10/01 00:45:37;;;;;;;3.67;3.17;;;14.50;99.90;;;;;;2093391;28;20024;-70
2022/10/01 00:46:43;;;;;;;3.28;2.95;;;14.60;99.90;;;;;;2093816;28;20027;-71
2022/10/01 00:47:46;;;;;;;5.07;3.35;;;14.60;99.90;;;;;;2092766;28;20028;-71
2022/10/01 00:49:09;;;;;;;4.60;3.92;;;14.50;99.90;;;;;;2102979;28;20042;-71
2022/10/01 00:50:25;;;;;;;3.72;3.38;;;14.50;99.90;;;;;;2091855;28;20102;-70
2022/10/01 00:51:31;;;;;;;3.30;2.92;;;14.50;99.90;;;;;;2094693;28;20149;-71
2022/10/01 00:52:35;;;;;;;4.30;3.25;;;14.50;99.90;;;;;;2094033;28;20063;-71
2022/10/01 00:53:37;;;;;;;7.15;3.67;;;14.50;99.90;;;;;;2091863;28;20029;-70
2022/10/01 00:54:44;;;;;;;5.03;3.30;;;14.40;99.90;;;;;;2094597;28;20619;-71
2022/10/01 00:55:53;;;;;;;6.68;3.45;;;14.40;99.90;;;;;;2095741;28;20101;-71
2022/10/01 00:56:57;;;;;;;4.30;3.60;;;14.40;99.90;;;;;;2093561;28;20025;-71
2022/10/01 00:57:57;;;;;;;3.90;3.40;;;14.40;99.90;;;;;;2093261;28;20044;-70
2022/10/01 00:58:59;;;;;;;3.63;3.33;;;14.40;99.90;;;;;;2093587;28;20059;-70
2022/10/01 01:00:04;;;;;;;3.25;2.92;;;14.40;99.90;;;;;;2092446;28;20036;-70
2022/10/01 01:01:05;;;;;;;5.35;3.65;;;14.30;99.90;;;;;;2094146;28;20030;-70
2022/10/01 01:02:05;;;;;;;5.78;3.58;;;14.30;99.90;;;;;;2092978;28;20063;-70
2022/10/01 01:03:08;;;;;;;4.03;3.55;;;14.30;99.90;;;;;;2093690;28;20148;-70
2022/10/01 01:04:15;;;;;;;3.75;3.45;;;14.30;99.90;;;;;;2093656;28;20082;-70
2022/10/01 01:05:15;;;;;;;3.97;3.60;;;14.30;99.90;;;;;;2093176;28;20033;-70
2022/10/01 01:06:16;;;;;;;5.22;3.60;;;14.30;99.90;;;;;;2091416;28;20139;-70
2022/10/01 01:07:18;;;;;;;5.80;4.05;;;14.30;99.90;;;;;;2094192;28;20029;-70
2022/10/01 01:08:18;;;;;;;3.05;2.72;;;14.30;99.90;;;;;;2093497;28;20026;-70
2022/10/01 01:09:25;;;;;;;4.10;3.72;;;14.30;99.90;;;;;;2094326;28;20112;-70
2022/10/01 01:10:40;;;;;;;4.88;3.90;;;14.20;99.90;;;;;;2092766;28;20028;-70
2022/10/01 01:12:04;;;;;;;5.05;3.67;;;14.20;99.90;;;;;;2094036;28;20062;-70
2022/10/01 01:13:26;;;;;;;5.30;3.83;;;14.10;99.90;;;;;;2096486;28;20056;-70
2022/10/01 01:14:57;;;;;;;6.10;3.75;;;14.10;99.90;;;;;;2094373;28;20029;-70
2022/10/01 01:16:21;;;;;;;5.65;3.97;;;14.00;99.90;;;;;;2092473;28;20548;-70
2022/10/01 01:17:27;;;;;;;7.70;3.83;;;14.00;99.90;;;;;;2093183;28;20078;-70
2022/10/01 01:18:39;;;;;;;4.22;3.63;;;13.90;99.90;;;;;;2092171;28;20032;-70
2022/10/01 01:20:02;;;;;;;5.22;3.50;;;13.90;99.90;;;;;;2094161;28;20601;-70
2022/10/01 01:21:20;;;;;;;5.63;3.67;;;13.90;99.90;;;;;;2093687;28;20026;-70
2022/10/01 01:22:23;;;;;;;3.70;3.38;;;13.90;99.90;;;;;;2092614;28;20024;-70
2022/10/01 01:23:54;;;;;;;4.35;3.40;;;13.90;99.90;;;;;;2093289;28;20032;-70
2022/10/01 01:25:15;;;;;;;6.43;3.60;;;13.90;99.90;;;;;;2093500;28;20590;-70
2022/10/01 01:26:49;;;;;;;3.65;3.35;;;13.80;99.90;;;;;;2093008;28;20035;-70
2022/10/01 01:28:30;;;;;;;4.28;3.50;;;13.80;99.90;;;;;;2093778;28;20036;-70
2022/10/01 01:29:42;;;;;;;4.05;3.17;;;13.70;99.90;;;;;;2091903;28;20051;-70
2022/10/01 01:30:48;;;;;;;4.38;3.53;;;13.60;99.90;;;;;;2091754;28;20036;-70
2022/10/01 01:31:48;;;;;;;3.70;3.35;;;13.60;99.90;;;;;;2093884;28;20534;-70
2022/10/01 01:33:05;;;;;;;4.55;3.90;;;13.60;99.90;;;;;;2095074;28;20471;-70
2022/10/01 01:34:11;;;;;;;4.00;3.42;;;13.60;99.90;;;;;;2093162;28;20021;-70
2022/10/01 01:35:20;;;;;;;7.20;4.20;;;13.60;99.90;;;;;;2096368;28;20025;-70
2022/10/01 01:36:27;;;;;;;3.58;3.22;;;13.60;99.90;;;;;;2093971;28;20016;-70
2022/10/01 01:37:32;;;;;;;4.25;3.58;;;13.60;99.90;;;;;;2092265;28;20094;-70
2022/10/01 01:38:45;;;;;;;4.85;3.95;;;13.60;99.90;;;;;;2093832;28;20040;-69
2022/10/01 01:39:50;;;;;;;5.22;3.42;;;13.60;99.90;;;;;;2094268;28;20774;-70
2022/10/01 01:40:54;;;;;;;4.63;3.75;;;13.60;99.90;;;;;;2094790;28;20593;-70
2022/10/01 01:41:59;;;;;;;4.28;3.63;;;13.60;99.90;;;;;;2094040;28;20068;-70
2022/10/01 01:43:07;;;;;;;4.30;4.00;;;13.60;99.90;;;;;;2093132;28;20476;-70
2022/10/01 01:44:11;;;;;;;5.22;3.50;;;13.60;99.90;;;;;;2094725;28;20028;-71
2022/10/01 01:45:18;;;;;;;4.25;3.38;;;13.50;99.90;;;;;;2091932;28;20096;-69
2022/10/01 01:46:20;;;;;;;5.43;3.55;;;13.50;99.90;;;;;;2093571;28;20119;-70
2022/10/01 01:47:23;;;;;;;3.97;3.67;;;13.60;99.90;;;;;;2091657;28;20718;-70
2022/10/01 01:48:26;;;;;;;3.92;3.63;;;13.50;99.90;;;;;;2092996;28;20025;-70
2022/10/01 01:49:28;;;;;;;4.47;3.53;;;13.50;99.90;;;;;;2094838;28;20024;-70
2022/10/01 01:50:37;;;;;;;4.53;3.83;;;13.50;99.90;;;;;;2093895;28;20091;-70
2022/10/01 01:51:43;;;;;;;4.63;3.60;;;13.50;99.90;;;;;;2092539;28;20025;-70
2022/10/01 01:52:44;;;;;;;4.22;3.42;;;13.50;99.90;;;;;;2091720;28;20099;-70
2022/10/01 01:53:45;;;;;;;4.88;3.45;;;13.50;99.90;;;;;;2092527;28;20036;-70
2022/10/01 01:54:48;;;;;;;3.88;3.55;;;13.50;99.90;;;;;;2093886;28;20036;-70
2022/10/01 01:55:49;;;;;;;3.55;3.20;;;13.50;99.90;;;;;;2093347;28;20439;-70
2022/10/01 01:56:51;;;;;;;4.30;3.28;;;13.50;99.90;;;;;;2092824;28;20094;-70
2022/10/01 01:57:53;;;;;;;4.63;3.70;;;13.40;99.90;;;;;;2092345;28;20025;-70
2022/10/01 01:58:53;;;;;;;4.28;3.42;;;13.40;99.90;;;;;;2093577;28;20032;-70
2022/10/01 01:59:54;;;;;;;5.88;3.92;;;13.50;99.90;;;;;;2091646;28;20021;-70
2022/10/01 02:00:54;;;;;;;4.55;3.28;;;13.50;99.90;;;;;;2092980;28;20024;-70
2022/10/01 02:01:57;;;;;;;3.95;3.20;;;13.50;99.90;;;;;;2093224;28;20029;-70
2022/10/01 02:02:58;;;;;;;3.58;3.28;;;13.40;99.90;;;;;;2093534;28;20028;-70
2022/10/01 02:04:01;;;;;;;5.68;3.53;;;13.50;99.90;;;;;;2091147;28;20116;-70
2022/10/01 02:05:08;;;;;;;3.60;3.30;;;13.40;99.90;;;;;;2091831;28;20056;-70
2022/10/01 02:06:29;;;;;;;4.45;3.00;;;13.40;99.90;;;;;;2092246;28;20040;-70
2022/10/01 02:07:42;;;;;;;4.18;3.05;;;13.40;99.90;;;;;;2094638;28;20020;-70
2022/10/01 02:09:13;;;;;;;3.83;3.30;;;13.40;99.90;;;;;;2093562;28;20066;-70
2022/10/01 02:10:17;;;;;;;3.58;3.28;;;13.40;99.90;;;;;;2093514;28;20037;-70
2022/10/01 02:11:24;;;;;;;3.20;3.00;;;13.30;99.90;;;;;;2091491;28;20020;-70
2022/10/01 02:13:00;;;;;;;4.03;3.63;;;13.30;99.90;;;;;;2092805;28;20044;-70
2022/10/01 02:14:10;;;;;;;4.43;3.47;;;13.40;99.90;;;;;;2092848;28;20032;-70
2022/10/01 02:15:26;;;;;;;3.50;3.20;;;13.30;99.90;;;;;;2093657;28;20033;-70
2022/10/01 02:16:33;;;;;;;3.85;3.05;;;13.30;99.90;;;;;;2091220;28;20029;-70
2022/10/01 02:18:02;;;;;;;3.67;3.08;;;13.30;99.90;;;;;;2092900;28;20025;-70
2022/10/01 02:19:22;;;;;;;4.63;2.88;;;13.30;99.90;;;;;;2092424;28;20071;-70
2022/10/01 02:20:33;;;;;;;3.78;3.47;;;13.30;99.90;;;;;;2092955;28;20074;-70
2022/10/01 02:21:55;;;;;;;4.72;3.30;;;13.30;99.90;;;;;;2092298;28;20127;-70
2022/10/01 02:23:05;;;;;;;3.67;3.38;;;13.30;99.90;;;;;;2093600;28;20033;-70
2022/10/01 02:24:13;;;;;;;3.97;3.30;;;13.30;99.90;;;;;;2092522;28;20021;-70
2022/10/01 02:25:17;;;;;;;6.57;2.92;;;13.30;99.90;;;;;;2092458;28;20022;-70
2022/10/01 02:26:20;;;;;;;3.35;3.03;;;13.30;99.90;;;;;;2092035;28;20358;-70
2022/10/01 02:27:26;;;;;;;3.42;3.13;;;13.30;99.90;;;;;;2092912;28;20540;-70
2022/10/01 02:28:28;;;;;;;4.60;3.22;;;13.30;99.90;;;;;;2093180;28;20040;-70
2022/10/01 02:29:29;;;;;;;4.05;3.03;;;13.30;99.90;;;;;;2093544;28;20103;-70
2022/10/01 02:30:34;;;;;;;4.22;3.53;;;13.30;99.90;;;;;;2094768;28;20033;-70
2022/10/01 02:31:35;;;;;;;3.38;3.05;;;13.30;99.90;;;;;;2093645;28;20071;-70
2022/10/01 02:32:38;;;;;;;4.07;3.33;;;13.30;99.90;;;;;;2093637;28;20454;-70
2022/10/01 02:33:40;;;;;;;4.65;3.58;;;13.30;99.90;;;;;;2090904;28;20456;-70
2022/10/01 02:34:43;;;;;;;6.43;3.22;;;13.30;99.90;;;;;;2090840;28;20036;-70
2022/10/01 02:35:45;;;;;;;4.18;2.90;;;13.30;99.90;;;;;;2093365;28;20124;-69
2022/10/01 02:36:47;;;;;;;3.85;3.08;;;13.40;99.90;;;;;;2090453;28;21047;-69
2022/10/01 02:37:50;;;;;;;5.22;3.75;;;13.40;99.90;;;;;;2093681;28;20032;-70
2022/10/01 02:38:53;;;;;;;4.38;3.00;;;13.30;99.90;;;;;;2092842;28;20763;-70
2022/10/01 02:39:55;;;;;;;3.38;3.08;;;13.40;99.90;;;;;;2091357;28;20112;-70
2022/10/01 02:41:01;;;;;;;4.22;3.17;;;13.40;99.90;;;;;;2093579;28;20017;-70
2022/10/01 02:42:04;;;;;;;4.38;3.20;;;13.30;99.90;;;;;;2091650;28;20030;-70
2022/10/01 02:43:13;;;;;;;3.67;3.28;;;13.30;99.90;;;;;;2091693;28;20029;-70
2022/10/01 02:44:39;;;;;;;3.35;2.97;;;13.30;99.90;;;;;;2093086;28;20104;-70
2022/10/01 02:45:42;;;;;;;3.40;3.10;;;13.30;99.90;;;;;;2091427;28;20032;-70
2022/10/01 02:46:52;;;;;;;6.25;3.20;;;13.30;99.90;;;;;;2090882;28;20020;-70
2022/10/01 02:47:58;;;;;;;5.63;3.25;;;13.30;99.90;;;;;;2094043;28;20032;-70
2022/10/01 02:49:01;;;;;;;6.05;3.35;;;13.30;99.90;;;;;;2092722;28;20039;-70
2022/10/01 02:50:05;;;;;;;4.97;3.35;;;13.20;99.90;;;;;;2093688;28;20476;-70
2022/10/01 02:51:24;;;;;;;4.28;3.38;;;13.20;99.90;;;;;;2093956;28;20044;-70
2022/10/01 02:52:53;;;;;;;3.83;3.40;;;13.20;99.90;;;;;;2094657;28;20025;-69
2022/10/01 02:54:06;;;;;;;3.47;2.97;;;13.20;99.90;;;;;;2093015;28;20564;-70
2022/10/01 02:55:12;;;;;;;5.15;3.72;;;13.20;99.90;;;;;;2091857;28;20488;-70
2022/10/01 02:57:21;;;;;;;3.75;2.92;;;13.20;99.90;;;;;;2093498;28;20056;-70
2022/10/01 02:57:35;;;;;;;3.20;2.90;;;13.20;99.90;;;;;;2093278;28;20037;-70
2022/10/01 02:58:36;;;;;;;3.40;3.10;;;13.10;99.90;;;;;;2091444;28;20036;-70
2022/10/01 02:59:36;;;;;;;6.38;2.90;;;13.20;99.90;;;;;;2092185;28;21425;-70
2022/10/01 03:00:37;;;;;;;3.70;3.33;;;13.10;99.90;;;;;;2093442;28;20111;-70
2022/10/01 03:01:38;;;;;;;5.60;3.50;;;13.10;99.90;;;;;;2093067;28;20054;-70
2022/10/01 03:02:39;;;;;;;3.30;3.00;;;13.10;99.90;;;;;;2092089;28;20427;-70
2022/10/01 03:03:40;;;;;;;5.65;3.42;;;13.10;99.90;;;;;;2092337;28;20024;-69
2022/10/01 03:04:41;;;;;;;3.25;2.83;;;13.10;99.90;;;;;;2092395;28;20025;-70
2022/10/01 03:05:41;;;;;;;3.13;2.88;;;13.10;99.90;;;;;;2094476;28;20031;-69
2022/10/01 03:06:42;;;;;;;3.95;3.03;;;13.10;99.90;;;;;;2091019;28;20052;-70
2022/10/01 03:07:43;;;;;;;3.95;2.83;;;13.10;99.90;;;;;;2092745;28;20071;-70
2022/10/01 03:08:43;;;;;;;4.93;2.90;;;13.10;99.90;;;;;;2092521;28;20028;-70
2022/10/01 03:09:44;;;;;;;3.35;2.70;;;13.00;99.90;;;;;;2092012;28;20024;-71
2022/10/01 03:10:44;;;;;;;4.50;2.80;;;13.00;99.90;;;;;;2091998;28;20798;-70
2022/10/01 03:11:46;;;;;;;3.38;3.08;;;13.00;99.90;;;;;;2093519;28;20037;-70
2022/10/01 03:12:46;;;;;;;3.55;3.25;;;13.00;99.90;;;;;;2093153;28;20020;-70
2022/10/01 03:13:47;;;;;;;2.67;2.47;;;13.00;99.90;;;;;;2092038;28;20069;-70
2022/10/01 03:14:48;;;;;;;4.72;3.15;;;13.00;99.90;;;;;;2091558;28;20925;-70
2022/10/01 03:15:48;;;;;;;3.90;3.13;;;13.00;99.90;;;;;;2093041;28;20024;-70
2022/10/01 03:16:50;;;;;;;3.25;2.72;;;13.00;99.90;;;;;;2091338;28;20032;-70
2022/10/01 03:17:51;;;;;;;3.45;2.63;;;13.00;99.90;;;;;;2091110;28;20029;-70
2022/10/01 03:18:52;;;;;;;3.63;2.88;;;13.00;99.90;;;;;;2092356;28;20033;-70
2022/10/01 03:19:52;;;;;;;3.50;3.15;;;13.00;99.90;;;;;;2092240;28;20512;-70
2022/10/01 03:20:53;;;;;;;3.75;3.05;;;13.00;99.90;;;;;;2092556;28;20029;-70
2022/10/01 03:21:55;;;;;;;3.10;2.88;;;13.00;99.90;;;;;;2091019;28;20024;-70
2022/10/01 03:22:55;;;;;;;3.28;2.97;;;13.00;99.90;;;;;;2092285;28;20024;-70
2022/10/01 03:23:56;;;;;;;2.92;2.53;;;13.00;99.90;;;;;;2090909;28;20059;-70
2022/10/01 03:24:56;;;;;;;3.38;3.05;;;13.00;99.90;;;;;;2093706;28;20099;-70
2022/10/01 03:25:57;;;;;;;2.97;2.70;;;13.00;99.90;;;;;;2092570;28;20561;-70
2022/10/01 03:26:58;;;;;;;4.93;2.95;;;13.00;99.90;;;;;;2091686;28;20079;-70
2022/10/01 03:27:58;;;;;;;5.53;2.92;;;13.00;99.90;;;;;;2092463;28;20037;-70
2022/10/01 03:28:59;;;;;;;5.55;3.22;;;12.90;99.90;;;;;;2092313;28;20017;-70
2022/10/01 03:29:59;;;;;;;3.13;2.75;;;12.90;99.90;;;;;;2092029;28;20135;-70
2022/10/01 03:31:05;;;;;;;5.55;3.53;;;12.90;99.90;;;;;;2091315;28;20504;-70
2022/10/01 03:32:06;;;;;;;3.78;2.70;;;12.90;99.90;;;;;;2092304;28;20024;-70
2022/10/01 03:33:06;;;;;;;4.15;2.60;;;12.90;99.90;;;;;;2091643;28;20036;-70
2022/10/01 03:34:07;;;;;;;3.55;2.45;;;12.90;99.90;;;;;;2092747;28;20657;-70
2022/10/01 03:35:08;;;;;;;2.78;2.58;;;12.90;99.90;;;;;;2092757;28;20132;-70
2022/10/01 03:36:08;;;;;;;3.03;2.70;;;12.90;99.90;;;;;;2092698;28;20082;-70
2022/10/01 03:37:09;;;;;;;3.28;2.85;;;12.80;99.90;;;;;;2092147;28;20107;-70
2022/10/01 03:38:12;;;;;;;3.78;3.47;;;12.80;99.90;;;;;;2091324;28;20029;-70
2022/10/01 03:39:13;;;;;;;3.20;2.80;;;12.90;99.90;;;;;;2091626;28;20033;-70
2022/10/01 03:40:14;;;;;;;5.38;2.92;;;12.80;99.90;;;;;;2092379;28;20111;-70
2022/10/01 03:41:14;;;;;;;4.65;2.63;;;12.80;99.90;;;;;;2092691;28;20107;-70
2022/10/01 03:42:15;;;;;;;2.95;2.72;;;12.90;99.90;;;;;;2092537;28;20029;-70
2022/10/01 03:43:16;;;;;;;3.78;2.60;;;12.80;99.90;;;;;;2092249;28;20029;-70
2022/10/01 03:44:16;;;;;;;4.22;2.70;;;12.80;99.90;;;;;;2092836;28;20025;-69
2022/10/01 03:45:17;;;;;;;4.15;2.65;;;12.80;99.90;;;;;;2091660;28;20035;-70
2022/10/01 03:46:17;;;;;;;3.28;2.60;;;12.80;99.90;;;;;;2091517;28;20017;-70
2022/10/01 03:47:18;;;;;;;2.80;2.60;;;12.80;99.90;;;;;;2091640;28;20028;-70
2022/10/01 03:48:18;;;;;;;2.60;2.40;;;12.80;99.90;;;;;;2091895;28;20657;-70
2022/10/01 03:49:19;;;;;;;3.15;2.85;;;12.80;99.90;;;;;;2090528;28;20127;-70
2022/10/01 03:50:20;;;;;;;3.42;2.92;;;12.90;99.90;;;;;;2092732;28;20584;-70
2022/10/01 03:51:21;;;;;;;2.55;2.35;;;12.90;99.90;;;;;;2092967;28;20024;-71
2022/10/01 03:52:21;;;;;;;3.13;2.78;;;12.80;99.90;;;;;;2093279;28;20029;-70
2022/10/01 03:53:23;;;;;;;2.90;2.53;;;12.80;99.90;;;;;;2091397;28;20110;-70
2022/10/01 03:54:24;;;;;;;3.80;2.50;;;12.80;99.90;;;;;;2091945;28;20484;-71
2022/10/01 03:55:25;;;;;;;4.03;3.10;;;12.80;99.90;;;;;;2094529;28;20439;-70
2022/10/01 03:56:26;;;;;;;5.53;2.90;;;12.80;99.90;;;;;;2093129;28;20093;-70
2022/10/01 03:57:26;;;;;;;3.05;2.20;;;12.80;99.90;;;;;;2093090;28;20035;-70
2022/10/01 03:58:27;;;;;;;2.65;2.40;;;12.80;99.90;;;;;;2090086;28;20052;-70
2022/10/01 03:59:28;;;;;;;5.28;2.70;;;12.80;99.90;;;;;;2091587;28;20546;-71
2022/10/01 04:00:28;;;;;;;2.25;2.15;;;12.80;99.90;;;;;;2092955;28;20366;-70
2022/10/01 04:01:29;;;;;;;3.08;2.70;;;12.80;99.90;;;;;;2092537;28;20120;-70
2022/10/01 04:02:30;;;;;;;3.05;2.53;;;12.80;99.90;;;;;;2091545;28;20020;-70
2022/10/01 04:03:30;;;;;;;3.75;2.63;;;12.70;99.90;;;;;;2094141;28;20039;-70
2022/10/01 04:04:31;;;;;;;2.35;2.15;;;12.80;99.90;;;;;;2093172;28;20025;-70
2022/10/01 04:05:32;;;;;;;2.03;1.92;;;12.80;99.90;;;;;;2092638;28;20074;-70
2022/10/01 04:06:32;;;;;;;2.50;2.30;;;12.80;99.90;;;;;;2092021;28;20090;-70
2022/10/01 04:07:33;;;;;;;3.03;2.00;;;12.80;99.90;;;;;;2090968;28;20032;-70
2022/10/01 04:08:33;;;;;;;2.35;2.15;;;12.80;99.90;;;;;;2091865;28;20483;-70
2022/10/01 04:09:36;;;;;;;1.92;1.73;;;12.70;99.90;;;;;;2093243;28;20091;-70
2022/10/01 04:10:37;;;;;;;2.38;2.17;;;12.70;99.90;;;;;;2093460;28;20036;-70
2022/10/01 04:11:38;;;;;;;1.95;1.80;;;12.80;99.90;;;;;;2092548;28;20033;-71
2022/10/01 04:12:38;;;;;;;3.40;1.80;;;12.70;99.90;;;;;;2093248;28;20025;-70
2022/10/01 04:13:39;;;;;;;2.28;2.08;;;12.80;99.90;;;;;;2098083;28;20020;-70
2022/10/01 04:14:40;;;;;;;3.13;2.15;;;12.80;99.90;;;;;;2100431;28;20555;-70
2022/10/01 04:15:40;;;;;;;2.03;1.92;;;12.70;99.90;;;;;;2091501;28;20028;-70
2022/10/01 04:16:41;;;;;;;2.00;1.80;;;12.80;99.90;;;;;;2090879;28;20444;-70
2022/10/01 04:17:41;;;;;;;1.60;1.50;;;12.80;99.90;;;;;;2090132;28;20095;-70
2022/10/01 04:18:42;;;;;;;2.00;1.80;;;12.80;99.90;;;;;;2094501;28;20056;-70
2022/10/01 04:19:42;;;;;;;1.95;1.85;;;12.70;99.90;;;;;;2094164;28;20380;-71
2022/10/01 04:20:43;;;;;;;2.92;1.70;;;12.70;99.90;;;;;;2093279;28;20024;-70
2022/10/01 04:21:43;;;;;;;1.45;1.42;;;12.80;99.90;;;;;;2092415;28;20063;-70
2022/10/01 04:22:45;;;;;;;1.40;1.30;;;12.80;99.90;;;;;;2093242;28;20039;-70
2022/10/01 04:23:45;;;;;;;1.45;1.40;;;12.80;99.90;;;;;;2092862;28;20026;-69
2022/10/01 04:24:46;;;;;;;3.88;1.67;;;12.80;99.90;;;;;;2093732;28;20017;-70
2022/10/01 04:25:46;;;;;;;1.25;1.25;;;12.80;99.90;;;;;;2095057;28;20028;-70
2022/10/01 04:26:49;;;;;;;1.52;1.42;;;12.80;99.90;;;;;;2094490;28;20504;-70
2022/10/01 04:28:04;;;;;;;1.55;1.25;;;12.80;99.90;;;;;;2093660;28;20024;-70
2022/10/01 04:29:05;;;;;;;2.45;1.27;;;12.80;99.90;;;;;;2095176;28;20032;-70
2022/10/01 04:30:07;;;;;;;2.13;1.60;;;12.80;99.90;;;;;;2093950;28;20110;-70
2022/10/01 04:31:23;;;;;;;2.55;1.27;;;12.80;99.90;;;;;;2092269;28;20029;-70
2022/10/01 04:32:23;;;;;;;1.25;1.20;;;12.80;99.90;;;;;;2095046;28;20479;-70
2022/10/01 04:33:24;;;;;;;1.27;1.10;;;12.80;99.90;;;;;;2092975;28;20074;-70
2022/10/01 04:34:51;;;;;;;1.00;1.00;;;12.80;99.90;;;;;;2094807;28;20025;-70
2022/10/01 04:35:45;;;;;;;2.08;1.10;;;12.80;99.90;;;;;;2092812;28;20028;-70
2022/10/01 04:36:46;;;;;;;1.63;0.95;;;12.80;99.90;;;;;;2093522;28;20028;-70
2022/10/01 04:37:46;;;;;;;1.40;1.20;;;12.80;99.90;;;;;;2092665;28;20653;-70
2022/10/01 04:38:50;;;;;;;1.20;1.10;;;12.80;99.90;;;;;;2092501;28;20024;-70
2022/10/01 04:39:51;;;;;;;0.80;0.80;;;12.80;99.90;;;;;;2094398;28;20024;-70
2022/10/01 04:40:51;;;;;;;1.35;1.25;;;12.80;99.90;;;;;;2093461;28;20031;-70
2022/10/01 04:41:52;;;;;;;1.20;1.10;;;12.80;99.90;;;;;;2094008;28;20029;-70
2022/10/01 04:42:52;;;;;;;1.30;1.00;;;12.80;99.90;;;;;;2093229;28;20416;-70
2022/10/01 04:43:53;;;;;;;1.10;1.10;;;12.80;99.90;;;;;;2093067;28;20055;-70
2022/10/01 04:44:53;;;;;;;1.42;0.98;;;12.80;99.90;;;;;;2092330;28;20024;-70
2022/10/01 04:45:54;;;;;;;0.98;0.90;;;12.80;99.90;;;;;;2093650;28;20103;-71
2022/10/01 04:46:55;;;;;;;1.00;1.00;;;12.80;99.90;;;;;;2092814;28;20032;-71
2022/10/01 04:47:57;;;;;;;0.90;0.90;;;12.80;99.90;;;;;;2093085;28;20476;-71
2022/10/01 04:48:57;;;;;;;1.23;1.08;;;12.80;99.90;;;;;;2096355;28;20118;-70
2022/10/01 04:49:58;;;;;;;0.98;0.93;;;12.80;99.90;;;;;;2093477;28;20064;-70
2022/10/01 04:50:58;;;;;;;1.40;1.10;;;12.90;99.90;;;;;;2095442;28;20055;-70
2022/10/01 04:51:59;;;;;;;1.48;1.05;;;12.90;99.90;;;;;;2093318;28;20041;-70
2022/10/01 04:53:00;;;;;;;0.85;0.85;;;12.90;99.90;;;;;;2093135;28;20500;-70
2022/10/01 04:54:01;;;;;;;1.42;1.27;;;12.80;99.90;;;;;;2095361;28;20210;-71
2022/10/01 04:55:01;;;;;;;2.50;1.00;;;12.90;99.90;;;;;;2093849;28;20110;-70
2022/10/01 04:56:02;;;;;;;1.67;1.20;;;12.90;99.90;;;;;;2093274;28;20036;-71
2022/10/01 04:57:02;;;;;;;1.00;1.00;;;12.90;99.90;;;;;;2093797;28;20048;-71
2022/10/01 04:58:03;;;;;;;1.40;1.30;;;12.90;99.90;;;;;;2092426;28;20089;-71
2022/10/01 04:59:03;;;;;;;1.42;1.02;;;12.90;99.90;;;;;;2095082;28;20017;-71
2022/10/01 05:00:06;;;;;;;1.08;0.90;;;12.90;99.90;;;;;;2094631;28;20028;-71
2022/10/01 05:01:07;;;;;;;1.63;1.10;;;12.90;99.90;;;;;;2094890;28;20032;-70
2022/10/01 05:02:08;;;;;;;0.90;0.90;;;12.90;99.90;;;;;;2091817;28;20111;-71
2022/10/01 05:03:09;;;;;;;1.20;1.10;;;12.90;99.90;;;;;;2094386;28;20028;-70
2022/10/01 05:04:10;;;;;;;1.02;0.93;;;13.00;99.90;;;;;;2094608;28;20053;-70
2022/10/01 05:05:11;;;;;;;0.80;0.80;;;13.00;99.90;;;;;;2093607;28;20131;-71
2022/10/01 05:06:11;;;;;;;2.05;0.82;;;13.00;99.90;;;;;;2094926;28;20023;-71
2022/10/01 05:07:12;;;;;;;0.90;0.90;;;13.00;99.90;;;;;;2092072;28;20076;-71
2022/10/01 05:08:12;;;;;;;0.93;0.90;;;13.00;99.90;;;;;;2095433;28;20029;-71
2022/10/01 05:09:13;;;;;;;1.92;1.00;;;13.00;99.90;;;;;;2094272;28;20064;-71
2022/10/01 05:10:17;;;;;;;3.47;0.90;;;13.00;99.90;;;;;;2093350;28;20024;-71
2022/10/01 05:11:17;;;;;;;1.00;0.90;;;13.10;99.90;;;;;;2093901;28;20024;-71
2022/10/01 05:12:18;;;;;;;0.82;0.82;;;13.00;99.90;;;;;;2093728;28;20023;-71
2022/10/01 05:13:19;;;;;;;2.58;0.80;;;13.10;99.90;;;;;;2094100;28;20028;-71
2022/10/01 05:14:20;;;;;;;0.80;0.80;;;13.10;99.90;;;;;;2093886;28;20028;-71
2022/10/01 05:15:20;;;;;;;1.00;0.80;;;13.10;99.90;;;;;;2093334;28;20135;-70
2022/10/01 05:16:21;;;;;;;1.02;0.93;;;13.10;99.90;;;;;;2092555;28;20025;-71
2022/10/01 05:17:22;;;;;;;3.00;0.80;;;13.10;99.90;;;;;;2095242;28;20025;-71
2022/10/01 05:18:23;;;;;;;1.00;0.73;;;13.10;99.90;;;;;;2092358;28;20196;-70
2022/10/01 05:19:27;;;;;;;1.05;0.90;;;13.10;99.90;;;;;;2095322;28;20099;-71
2022/10/01 05:20:28;;;;;;;1.10;1.00;;;13.10;99.90;;;;;;2092072;28;20025;-70
2022/10/01 05:21:29;;;;;;;0.80;0.80;;;13.20;99.90;;;;;;2094190;28;20029;-70
2022/10/01 05:22:30;;;;;;;0.90;0.90;;;13.10;99.90;;;;;;2093317;28;20025;-70
2022/10/01 05:23:32;;;;;;;0.95;0.93;;;13.20;99.90;;;;;;2093487;28;20816;-70
2022/10/01 05:24:33;;;;;;;0.85;0.80;;;13.20;99.90;;;;;;2092555;28;20075;-70
2022/10/01 05:25:33;;;;;;;1.35;0.90;;;13.20;99.90;;;;;;2093924;28;20456;-71
2022/10/01 05:26:36;;;;;;;0.80;0.80;;;13.20;99.90;;;;;;2092398;28;20523;-70
2022/10/01 05:27:36;;;;;;;1.83;1.20;;;13.20;99.90;;;;;;2092691;28;20073;-70
2022/10/01 05:28:43;;;;;;;2.20;0.90;;;13.20;99.90;;;;;;2093422;28;20027;-70
2022/10/01 05:29:45;;;;;;;2.03;0.90;;;13.20;99.90;;;;;;2093427;28;20040;-70
2022/10/01 05:30:45;;;;;;;0.73;0.70;;;13.20;99.90;;;;;;2092102;28;20086;-70
2022/10/01 05:31:46;;;;;;;2.88;1.10;;;13.20;99.90;;;;;;2090784;28;20850;-70
2022/10/01 05:32:59;;;;;;;1.00;1.00;;;13.20;99.90;;;;;;2093429;28;20035;-70
2022/10/01 05:33:59;;;;;;;1.20;0.82;;;13.20;99.90;;;;;;2092273;28;20036;-70